createdAt,value
2023-02-23T00:02:22.425Z,6.50
2023-02-23T00:04:51.405Z,6.60
2023-02-23T00:07:20.824Z,6.60
2023-02-23T00:09:51.077Z,6.60
2023-02-23T00:12:21.075Z,6.60
2023-02-23T00:14:49.510Z,6.60
2023-02-23T00:17:18.404Z,6.70
2023-02-23T00:19:49.490Z,6.70
2023-02-23T00:22:18.515Z,6.70
2023-02-23T00:24:47.904Z,6.60
2023-02-23T00:27:18.665Z,6.60
2023-02-23T00:29:51.037Z,6.60
2023-02-23T00:32:21.094Z,6.50
2023-02-23T00:34:53.641Z,6.50
2023-02-23T00:37:23.330Z,6.50
2023-02-23T00:39:52.403Z,6.60
2023-02-23T00:42:20.895Z,6.60
2023-02-23T00:44:51.011Z,6.60
2023-02-23T00:47:19.703Z,6.60
2023-02-23T00:49:48.124Z,6.50
2023-02-23T00:52:16.812Z,6.50
2023-02-23T00:54:45.644Z,6.60
2023-02-23T00:57:14.040Z,6.50
2023-02-23T00:59:45.732Z,6.60
2023-02-23T01:02:16.070Z,6.60
2023-02-23T01:04:44.785Z,6.60
2023-02-23T01:07:13.363Z,6.60
2023-02-23T01:09:42.314Z,6.60
2023-02-23T01:12:10.781Z,6.60
2023-02-23T01:14:39.327Z,6.60
2023-02-23T01:17:08.024Z,6.60
2023-02-23T01:19:38.274Z,6.60
2023-02-23T01:22:07.282Z,6.60
2023-02-23T01:24:35.913Z,6.60
2023-02-23T01:27:04.564Z,6.60
2023-02-23T01:29:33.027Z,6.50
2023-02-23T01:32:04.222Z,6.50
2023-02-23T01:34:33.259Z,6.50
2023-02-23T01:37:03.543Z,6.50
2023-02-23T01:39:33.891Z,6.50
2023-02-23T01:42:02.364Z,6.50
2023-02-23T01:45:24.802Z,6.50
2023-02-23T01:47:57.726Z,6.50
2023-02-23T01:50:29.534Z,6.40
2023-02-23T01:53:00.515Z,6.40
2023-02-23T01:55:30.026Z,6.30
2023-02-23T01:58:08.557Z,6.40
2023-02-23T02:00:37.822Z,6.30
2023-02-23T02:03:12.185Z,6.40
2023-02-23T02:05:41.320Z,6.40
2023-02-23T02:08:12.579Z,6.30
2023-02-23T02:10:44.186Z,6.40
2023-02-23T02:13:25.925Z,6.40
2023-02-23T02:16:28.988Z,6.40
2023-02-23T02:19:31.490Z,6.40
2023-02-23T02:22:28.073Z,6.40
2023-02-23T02:25:28.786Z,6.40
2023-02-23T02:29:05.145Z,6.30
2023-02-23T02:32:55.414Z,6.30
2023-02-23T02:36:05.816Z,6.20
2023-02-23T02:38:53.899Z,6.20
2023-02-23T02:41:35.553Z,6.20
2023-02-23T02:44:15.236Z,6.20
2023-02-23T02:46:49.380Z,6.30
2023-02-23T02:49:27.737Z,6.30
2023-02-23T02:52:05.292Z,6.20
2023-02-23T02:54:40.632Z,6.20
2023-02-23T02:57:12.613Z,6.20
2023-02-23T03:00:02.791Z,6.30
2023-02-23T03:02:51.088Z,6.20
2023-02-23T03:05:42.881Z,6.10
2023-02-23T03:08:39.627Z,6.10
2023-02-23T03:11:30.762Z,6.00
2023-02-23T03:14:36.202Z,6.00
2023-02-23T03:17:30.984Z,6.00
2023-02-23T03:20:26.800Z,6.00
2023-02-23T03:23:17.523Z,5.90
2023-02-23T03:26:10.490Z,5.80
2023-02-23T03:29:08.865Z,5.70
2023-02-23T03:32:05.064Z,5.70
2023-02-23T03:34:56.014Z,5.70
2023-02-23T03:37:46.584Z,5.70
2023-02-23T03:40:39.869Z,5.80
2023-02-23T03:43:30.904Z,5.80
2023-02-23T03:46:21.248Z,5.80
2023-02-23T03:49:09.743Z,5.70
2023-02-23T03:51:59.186Z,5.80
2023-02-23T03:54:51.967Z,5.70
2023-02-23T03:57:40.495Z,5.70
2023-02-23T04:00:33.020Z,5.70
2023-02-23T04:03:23.305Z,5.70
2023-02-23T04:06:11.755Z,5.60
2023-02-23T04:08:58.709Z,5.70
2023-02-23T04:11:55.613Z,5.70
2023-02-23T04:14:29.719Z,5.70
2023-02-23T04:16:58.413Z,5.70
2023-02-23T04:19:29.993Z,5.70
2023-02-23T04:21:58.447Z,5.70
2023-02-23T04:24:27.000Z,5.70
2023-02-23T04:26:55.453Z,5.70
2023-02-23T04:29:24.440Z,5.50
2023-02-23T04:31:54.181Z,5.40
2023-02-23T04:34:22.889Z,5.30
2023-02-23T04:36:52.692Z,5.30
2023-02-23T04:39:21.355Z,5.40
2023-02-23T04:41:50.559Z,5.40
2023-02-23T04:44:19.134Z,5.50
2023-02-23T04:46:47.576Z,5.50
2023-02-23T04:49:16.244Z,5.60
2023-02-23T04:51:44.684Z,5.60
2023-02-23T04:54:14.520Z,5.60
2023-02-23T04:56:43.030Z,5.70
2023-02-23T04:59:11.857Z,5.70
2023-02-23T05:01:40.353Z,5.70
2023-02-23T05:04:08.847Z,5.70
2023-02-23T05:06:37.919Z,5.70
2023-02-23T05:09:07.068Z,5.70
2023-02-23T05:11:37.261Z,5.60
2023-02-23T05:14:06.012Z,5.70
2023-02-23T05:16:34.835Z,5.70
2023-02-23T05:19:03.328Z,5.70
2023-02-23T05:21:31.962Z,5.80
2023-02-23T05:24:00.694Z,5.80
2023-02-23T05:26:29.404Z,5.80
2023-02-23T05:28:59.909Z,5.80
2023-02-23T05:31:28.897Z,5.80
2023-02-23T05:33:57.638Z,5.80
2023-02-23T05:36:26.112Z,5.80
2023-02-23T05:38:54.580Z,5.80
2023-02-23T05:41:24.816Z,5.70
2023-02-23T05:43:54.000Z,5.70
2023-02-23T05:46:26.705Z,5.70
2023-02-23T05:48:59.510Z,5.60
2023-02-23T05:51:29.845Z,5.30
2023-02-23T05:53:58.319Z,5.20
2023-02-23T05:56:27.481Z,5.00
2023-02-23T05:58:58.895Z,4.80
2023-02-23T06:01:29.557Z,4.80
2023-02-23T06:03:58.294Z,4.80
2023-02-23T06:06:28.434Z,4.70
2023-02-23T06:08:57.466Z,4.90
2023-02-23T06:11:26.208Z,5.00
2023-02-23T06:13:55.345Z,5.10
2023-02-23T06:16:24.306Z,5.10
2023-02-23T06:18:54.297Z,5.20
2023-02-23T06:21:23.588Z,5.30
2023-02-23T06:23:53.873Z,5.30
2023-02-23T06:26:22.386Z,5.30
2023-02-23T06:28:50.809Z,5.30
2023-02-23T06:31:19.590Z,5.30
2023-02-23T06:33:48.743Z,5.30
2023-02-23T06:36:18.571Z,5.20
2023-02-23T06:38:47.889Z,5.30
2023-02-23T06:41:16.549Z,5.20
2023-02-23T06:43:45.491Z,5.20
2023-02-23T06:46:13.932Z,5.20
2023-02-23T06:48:42.637Z,5.20
2023-02-23T06:51:11.150Z,5.20
2023-02-23T06:53:41.194Z,5.30
2023-02-23T06:56:13.940Z,5.30
2023-02-23T06:58:43.906Z,6.50
2023-02-23T07:01:12.816Z,5.40
2023-02-23T07:03:41.360Z,5.40
2023-02-23T07:06:10.279Z,5.30
2023-02-23T07:08:40.156Z,5.30
2023-02-23T07:11:10.186Z,5.30
2023-02-23T07:13:40.888Z,5.30
2023-02-23T07:16:11.170Z,5.30
2023-02-23T07:18:39.617Z,5.40
2023-02-23T07:21:08.636Z,5.40
2023-02-23T07:23:37.094Z,5.50
2023-02-23T07:26:09.811Z,5.60
2023-02-23T07:28:38.265Z,5.70
2023-02-23T07:31:06.958Z,5.90
2023-02-23T07:33:36.442Z,5.90
2023-02-23T07:36:05.447Z,5.90
2023-02-23T07:38:35.797Z,6.00
2023-02-23T07:41:04.626Z,6.00
2023-02-23T07:43:34.483Z,5.90
2023-02-23T07:46:04.025Z,5.90
2023-02-23T07:48:33.413Z,6.00
2023-02-23T07:51:02.699Z,6.00
2023-02-23T07:53:31.924Z,5.90
2023-02-23T07:56:01.929Z,6.00
2023-02-23T07:58:30.641Z,6.10
2023-02-23T08:01:01.384Z,6.40
2023-02-23T08:03:30.505Z,6.40
2023-02-23T08:06:00.244Z,6.50
2023-02-23T08:08:29.759Z,6.70
2023-02-23T08:11:02.004Z,6.70
2023-02-23T08:13:31.948Z,6.70
2023-02-23T08:16:01.800Z,6.80
2023-02-23T08:18:30.257Z,6.80
2023-02-23T08:21:03.364Z,6.80
2023-02-23T08:23:33.339Z,6.90
2023-02-23T08:26:02.243Z,6.80
2023-02-23T08:28:31.910Z,6.90
2023-02-23T08:31:01.876Z,6.80
2023-02-23T08:33:31.741Z,6.80
2023-02-23T08:36:02.874Z,6.90
2023-02-23T08:38:31.538Z,6.90
2023-02-23T08:41:02.320Z,7.20
2023-02-23T08:43:30.975Z,7.20
2023-02-23T08:46:01.944Z,7.30
2023-02-23T08:48:30.414Z,7.40
2023-02-23T08:50:59.429Z,7.60
2023-02-23T08:53:29.764Z,7.60
2023-02-23T08:56:00.652Z,7.70
2023-02-23T08:58:30.564Z,7.80
2023-02-23T09:00:59.205Z,8.00
2023-02-23T09:03:31.338Z,8.10
2023-02-23T09:06:07.435Z,8.20
2023-02-23T09:08:37.152Z,8.30
2023-02-23T09:11:05.875Z,8.30
2023-02-23T09:13:34.349Z,8.40
2023-02-23T09:16:03.940Z,8.40
2023-02-23T09:18:33.814Z,8.30
2023-02-23T09:21:08.510Z,8.40
2023-02-23T09:23:37.895Z,8.40
2023-02-23T09:26:07.781Z,8.40
2023-02-23T09:28:40.342Z,8.30
2023-02-23T09:31:11.515Z,8.40
2023-02-23T09:33:42.232Z,8.40
2023-02-23T09:36:16.315Z,8.40
2023-02-23T09:38:45.908Z,8.40
2023-02-23T09:41:56.067Z,8.30
2023-02-23T09:44:39.163Z,8.30
2023-02-23T09:47:26.936Z,8.30
2023-02-23T09:49:58.886Z,8.30
2023-02-23T09:52:41.213Z,8.30
2023-02-23T09:55:14.701Z,8.30
2023-02-23T09:57:47.224Z,8.40
2023-02-23T10:00:25.418Z,8.40
2023-02-23T10:03:13.139Z,8.20
2023-02-23T10:05:50.992Z,8.30
2023-02-23T10:08:36.533Z,8.20
2023-02-23T10:11:15.875Z,8.20
2023-02-23T10:13:55.468Z,8.20
2023-02-23T10:16:32.722Z,8.30
2023-02-23T10:19:13.307Z,8.40
2023-02-23T10:21:47.982Z,8.60
2023-02-23T10:24:25.369Z,8.70
2023-02-23T10:26:56.212Z,8.80
2023-02-23T10:29:29.597Z,8.90
2023-02-23T10:32:01.486Z,9.00
2023-02-23T10:34:30.995Z,9.00
2023-02-23T10:37:03.790Z,9.10
2023-02-23T10:39:34.802Z,9.20
2023-02-23T10:42:07.733Z,9.40
2023-02-23T10:44:36.303Z,9.50
2023-02-23T10:47:12.183Z,9.60
2023-02-23T10:49:45.012Z,9.60
2023-02-23T10:52:19.452Z,9.60
2023-02-23T10:54:50.090Z,9.80
2023-02-23T10:57:26.550Z,9.80
2023-02-23T11:00:30.684Z,9.80
2023-02-23T11:03:00.873Z,9.80
2023-02-23T11:05:38.912Z,9.70
2023-02-23T11:08:32.962Z,9.70
2023-02-23T11:11:22.146Z,9.60
2023-02-23T11:13:52.594Z,9.60
2023-02-23T11:16:23.399Z,9.50
2023-02-23T11:18:56.052Z,9.60
2023-02-23T11:21:29.578Z,9.50
2023-02-23T11:24:15.023Z,9.50
2023-02-23T11:26:46.209Z,9.60
2023-02-23T11:29:21.191Z,9.50
2023-02-23T11:31:53.562Z,9.50
2023-02-23T11:34:30.286Z,9.50
2023-02-23T11:37:05.474Z,9.50
2023-02-23T11:39:35.917Z,9.50
2023-02-23T11:42:19.243Z,9.50
2023-02-23T11:44:53.689Z,9.50
2023-02-23T11:47:24.108Z,9.40
2023-02-23T11:49:53.240Z,9.50
2023-02-23T11:52:25.795Z,9.50
2023-02-23T11:54:59.810Z,9.50
2023-02-23T11:57:31.979Z,9.50
2023-02-23T12:00:04.025Z,9.60
2023-02-23T12:02:34.660Z,9.60
2023-02-23T12:05:09.470Z,9.70
2023-02-23T12:07:41.769Z,9.80
2023-02-23T12:10:23.055Z,9.80
2023-02-23T12:12:59.538Z,9.90
2023-02-23T12:15:43.470Z,10.00
2023-02-23T12:18:27.948Z,10.00
2023-02-23T12:21:05.959Z,10.00
2023-02-23T12:23:38.041Z,10.00
2023-02-23T12:26:18.120Z,10.10
2023-02-23T12:28:59.515Z,10.10
2023-02-23T12:31:33.357Z,10.00
2023-02-23T12:34:09.509Z,10.00
2023-02-23T12:36:44.204Z,10.00
2023-02-23T12:39:20.837Z,10.10
2023-02-23T12:42:02.985Z,10.00
2023-02-23T12:44:44.046Z,10.00
2023-02-23T12:47:26.058Z,10.10
2023-02-23T12:50:07.514Z,10.10
2023-02-23T12:52:40.420Z,10.20
2023-02-23T12:55:12.627Z,10.20
2023-02-23T12:57:50.290Z,10.30
2023-02-23T13:00:42.560Z,10.30
2023-02-23T13:04:02.212Z,10.40
2023-02-23T13:06:41.141Z,10.30
2023-02-23T13:09:28.183Z,10.30
2023-02-23T13:12:16.251Z,10.30
2023-02-23T13:14:53.761Z,10.40
2023-02-23T13:17:36.940Z,10.50
2023-02-23T13:20:16.045Z,10.60
2023-02-23T13:22:51.554Z,10.70
2023-02-23T13:25:34.074Z,10.70
2023-02-23T13:28:04.236Z,10.70
2023-02-23T13:30:35.833Z,10.80
2023-02-23T13:33:14.649Z,10.80
2023-02-23T13:35:43.384Z,10.80
2023-02-23T13:38:20.591Z,10.80
2023-02-23T13:40:55.303Z,10.80
2023-02-23T13:43:30.471Z,10.80
2023-02-23T13:46:19.671Z,10.70
2023-02-23T13:49:00.423Z,10.60
2023-02-23T13:51:39.559Z,10.60
2023-02-23T13:54:25.575Z,10.60
2023-02-23T13:56:58.334Z,10.70
2023-02-23T13:59:30.557Z,10.80
2023-02-23T14:02:37.073Z,10.80
2023-02-23T14:05:16.262Z,10.90
2023-02-23T14:07:49.092Z,10.90
2023-02-23T14:10:22.185Z,10.80
2023-02-23T14:13:27.626Z,10.80
2023-02-23T14:16:17.074Z,10.80
2023-02-23T14:19:12.485Z,10.80
2023-02-23T14:21:50.932Z,10.70
2023-02-23T14:24:23.475Z,10.80
2023-02-23T14:27:40.344Z,10.80
2023-02-23T14:30:25.671Z,10.80
2023-02-23T14:32:54.995Z,10.60
2023-02-23T14:35:45.874Z,10.70
2023-02-23T14:38:47.095Z,10.60
2023-02-23T14:41:16.612Z,10.60
2023-02-23T14:43:46.593Z,10.60
2023-02-23T14:46:22.499Z,10.60
2023-02-23T14:49:01.286Z,10.70
2023-02-23T14:51:45.112Z,10.60
2023-02-23T14:54:23.847Z,10.60
2023-02-23T14:56:56.961Z,10.50
2023-02-23T14:59:29.774Z,10.40
2023-02-23T15:02:01.840Z,10.30
2023-02-23T15:04:31.865Z,10.30
2023-02-23T15:07:03.479Z,10.30
2023-02-23T15:09:37.008Z,10.30
2023-02-23T15:12:15.951Z,10.30
2023-02-23T15:14:45.253Z,10.30
2023-02-23T15:17:19.672Z,10.30
2023-02-23T15:19:53.697Z,10.30
2023-02-23T15:22:29.886Z,10.30
2023-02-23T15:25:02.338Z,10.30
2023-02-23T15:27:43.098Z,10.30
2023-02-23T15:30:26.568Z,10.30
2023-02-23T15:33:06.639Z,10.30
2023-02-23T15:35:45.140Z,10.30
2023-02-23T15:38:41.694Z,10.30
2023-02-23T15:41:19.291Z,10.30
2023-02-23T15:43:48.318Z,10.30
2023-02-23T15:46:24.593Z,10.20
2023-02-23T15:48:55.663Z,10.10
2023-02-23T15:51:35.401Z,10.00
2023-02-23T15:54:14.204Z,9.90
2023-02-23T15:56:47.011Z,10.00
2023-02-23T15:59:24.134Z,10.00
2023-02-23T16:01:56.056Z,9.90
2023-02-23T16:04:32.716Z,9.80
2023-02-23T16:07:18.976Z,9.70
2023-02-23T16:09:55.372Z,9.50
2023-02-23T16:12:29.181Z,9.50
2023-02-23T16:15:01.421Z,9.40
2023-02-23T16:17:36.537Z,9.40
2023-02-23T16:20:17.313Z,9.30
2023-02-23T16:22:47.468Z,9.20
2023-02-23T16:25:20.284Z,9.10
2023-02-23T16:27:59.544Z,9.00
2023-02-23T16:30:40.838Z,8.90
2023-02-23T16:33:23.234Z,8.70
2023-02-23T16:35:55.671Z,8.50
2023-02-23T16:38:27.878Z,8.10
2023-02-23T16:40:57.979Z,7.70
2023-02-23T16:43:26.677Z,7.70
2023-02-23T16:45:55.305Z,7.70
2023-02-23T16:48:24.237Z,7.70
2023-02-23T16:50:52.878Z,7.60
2023-02-23T16:53:22.983Z,7.60
2023-02-23T16:55:54.584Z,7.50
2023-02-23T16:58:27.346Z,7.30
2023-02-23T17:00:56.210Z,7.20
2023-02-23T17:03:27.600Z,7.00
2023-02-23T17:05:56.428Z,6.70
2023-02-23T17:08:26.022Z,6.40
2023-02-23T17:10:55.943Z,6.60
2023-02-23T17:13:29.110Z,6.50
2023-02-23T17:15:58.077Z,6.20
2023-02-23T17:18:28.856Z,6.10
2023-02-23T17:20:59.754Z,5.70
2023-02-23T17:23:38.438Z,5.60
2023-02-23T17:26:08.483Z,5.40
2023-02-23T17:28:39.008Z,5.30
2023-02-23T17:31:08.815Z,5.30
2023-02-23T17:33:38.569Z,5.60
2023-02-23T17:36:12.015Z,5.70
2023-02-23T17:38:44.172Z,5.60
2023-02-23T17:41:17.556Z,5.50
2023-02-23T17:43:47.535Z,5.50
2023-02-23T17:46:16.371Z,5.40
2023-02-23T17:48:46.812Z,5.30
2023-02-23T17:51:17.108Z,5.10
2023-02-23T17:53:46.231Z,4.90
2023-02-23T17:56:16.075Z,4.70
2023-02-23T17:58:46.416Z,4.40
2023-02-23T18:01:16.395Z,4.40
2023-02-23T18:03:45.438Z,4.50
2023-02-23T18:06:16.894Z,4.40
2023-02-23T18:08:45.838Z,4.30
2023-02-23T18:11:18.637Z,4.40
2023-02-23T18:13:51.393Z,4.40
2023-02-23T18:16:23.038Z,4.30
2023-02-23T18:18:51.611Z,4.20
2023-02-23T18:21:23.248Z,4.10
2023-02-23T18:23:52.425Z,4.00
2023-02-23T18:26:24.780Z,3.70
2023-02-23T18:28:56.940Z,3.70
2023-02-23T18:31:28.867Z,3.70
2023-02-23T18:34:00.268Z,3.70
2023-02-23T18:36:31.712Z,3.70
2023-02-23T18:39:00.928Z,3.80
2023-02-23T18:41:31.195Z,3.70
2023-02-23T18:44:03.147Z,3.70
2023-02-23T18:46:32.322Z,3.60
2023-02-23T18:49:01.201Z,3.60
2023-02-23T18:51:30.431Z,3.50
2023-02-23T18:53:58.931Z,3.80
2023-02-23T18:56:29.210Z,3.50
2023-02-23T18:59:01.822Z,3.50
2023-02-23T19:01:33.413Z,3.50
2023-02-23T19:04:03.730Z,3.50
2023-02-23T19:06:33.627Z,3.60
2023-02-23T19:09:04.262Z,3.40
2023-02-23T19:11:35.591Z,3.40
2023-02-23T19:14:08.139Z,3.30
2023-02-23T19:16:38.374Z,3.20
2023-02-23T19:19:09.655Z,3.30
2023-02-23T19:21:38.971Z,3.30
2023-02-23T19:24:08.994Z,3.40
2023-02-23T19:26:40.163Z,3.30
2023-02-23T19:29:10.232Z,3.30
2023-02-23T19:31:38.857Z,3.40
2023-02-23T19:34:08.789Z,3.40
2023-02-23T19:36:37.641Z,3.40
2023-02-23T19:39:10.610Z,3.30
2023-02-23T19:41:41.081Z,3.10
2023-02-23T19:44:11.519Z,3.00
2023-02-23T19:46:40.343Z,3.00
2023-02-23T19:49:08.874Z,2.90
2023-02-23T19:51:38.105Z,2.80
2023-02-23T19:54:07.783Z,2.80
2023-02-23T19:56:38.286Z,2.80
2023-02-23T19:59:07.545Z,2.80
2023-02-23T20:01:37.612Z,2.60
2023-02-23T20:04:08.349Z,2.60
2023-02-23T20:06:44.744Z,2.50
2023-02-23T20:09:14.006Z,2.40
2023-02-23T20:11:42.700Z,2.40
2023-02-23T20:14:12.583Z,2.30
2023-02-23T20:16:42.734Z,2.30
2023-02-23T20:19:11.934Z,2.30
2023-02-23T20:21:42.363Z,2.30
2023-02-23T20:24:12.774Z,2.30
2023-02-23T20:26:41.893Z,2.30
2023-02-23T20:29:17.942Z,2.30
2023-02-23T20:31:51.992Z,2.20
2023-02-23T20:34:24.729Z,2.20
2023-02-23T20:36:54.165Z,2.10
2023-02-23T20:39:22.718Z,2.00
2023-02-23T20:41:53.721Z,2.10
2023-02-23T20:44:24.623Z,2.00
2023-02-23T20:46:54.473Z,2.00
2023-02-23T20:49:24.504Z,2.10
2023-02-23T20:51:53.124Z,2.00
2023-02-23T20:54:22.300Z,2.00
2023-02-23T20:56:59.008Z,2.10
2023-02-23T20:59:30.675Z,2.10
2023-02-23T21:02:04.296Z,2.10
2023-02-23T21:04:35.315Z,2.10
2023-02-23T21:07:04.995Z,2.20
2023-02-23T21:09:33.521Z,2.30
2023-02-23T21:12:03.898Z,2.40
2023-02-23T21:14:34.586Z,2.50
2023-02-23T21:17:05.475Z,2.50
2023-02-23T21:19:34.911Z,2.50
2023-02-23T21:22:03.380Z,2.60
2023-02-23T21:24:34.081Z,2.60
2023-02-23T21:27:05.339Z,2.60
2023-02-23T21:29:33.905Z,2.70
2023-02-23T21:32:03.004Z,2.70
2023-02-23T21:34:32.855Z,2.70
2023-02-23T21:37:01.954Z,2.70
2023-02-23T21:39:31.291Z,2.80
2023-02-23T21:42:00.451Z,2.70
2023-02-23T21:44:28.903Z,2.80
2023-02-23T21:46:57.557Z,2.80
2023-02-23T21:49:26.227Z,2.90
2023-02-23T21:51:58.042Z,2.90
2023-02-23T21:54:26.488Z,2.90
2023-02-23T21:56:54.972Z,2.90
2023-02-23T21:59:23.389Z,2.90
2023-02-23T22:01:51.892Z,2.90
2023-02-23T22:04:20.405Z,2.90
2023-02-23T22:06:49.056Z,3.00
2023-02-23T22:09:18.929Z,2.90
2023-02-23T22:11:49.096Z,3.00
2023-02-23T22:14:18.077Z,3.00
2023-02-23T22:16:47.762Z,3.00
2023-02-23T22:19:17.806Z,3.00
2023-02-23T22:21:48.475Z,3.00
2023-02-23T22:24:19.172Z,3.00
2023-02-23T22:26:53.848Z,3.00
2023-02-23T22:29:23.582Z,3.00
2023-02-23T22:31:52.317Z,3.00
2023-02-23T22:34:20.820Z,3.00
2023-02-23T22:36:50.175Z,3.00
2023-02-23T22:39:20.146Z,3.00
2023-02-23T22:41:49.620Z,3.10
2023-02-23T22:44:21.388Z,3.00
2023-02-23T22:46:50.152Z,3.10
2023-02-23T22:49:20.067Z,3.10
2023-02-23T22:51:50.549Z,3.10
2023-02-23T22:54:23.810Z,3.10
2023-02-23T22:56:52.288Z,3.10
2023-02-23T22:59:20.807Z,3.20
2023-02-23T23:01:50.430Z,3.20
2023-02-23T23:04:22.018Z,3.10
2023-02-23T23:06:50.690Z,3.20
2023-02-23T23:09:21.455Z,3.20
2023-02-23T23:11:51.423Z,3.10
2023-02-23T23:14:20.617Z,3.10
2023-02-23T23:16:49.870Z,3.10
2023-02-23T23:19:24.466Z,3.00
2023-02-23T23:21:56.106Z,3.10
2023-02-23T23:24:26.671Z,3.10
2023-02-23T23:27:00.107Z,3.10
2023-02-23T23:29:30.562Z,2.90
2023-02-23T23:31:59.314Z,2.90
2023-02-23T23:34:27.849Z,2.90
2023-02-23T23:36:56.829Z,3.10
2023-02-23T23:39:27.022Z,3.00
2023-02-23T23:41:55.870Z,3.10
2023-02-23T23:44:29.307Z,3.10
2023-02-23T23:46:58.388Z,3.10
2023-02-23T23:49:27.226Z,3.10
2023-02-23T23:51:57.124Z,3.10
2023-02-23T23:54:30.870Z,3.10
2023-02-23T23:57:01.419Z,3.00
2023-02-23T23:59:32.033Z,3.00
